• Join FlightAware (Why Join?)
  • Login
  • US Flag 
12:45AM EST


 

Airport Tracker/Info


-or-


 

Live Flight TrackerFlight Track Log ✈ N885FT ✈ 07-May-2014 ✈ KOCF - KMLB

Flight Track Log - Related Links

Times and Time Zones

All times are in EDT time to prevent confusion due to time zone crossing. See the N885FT flight status page for this flight to view local times or setup timezone preferences in your user account.

Time Position Orientation Groundspeed Altitude Reporting Facility
EDT Latitude Longitude Course Direction KTS MPH feet Rate Location/Type
08:49PM 29.1119 -82.1319 148° Southeast 140 161 2,100  Level Jacksonville Center
08:50PM 29.0992 -82.0942 111° Southeast 136 157 2,100 300 Level Jacksonville Center
08:52PM 29.0500 -82.0500 142° Southeast 118 136 3,100 540 Climbing Orlando TRACON
08:53PM 29.0333 -82.0333 139° Southeast 110 127 3,700 660 Climbing Orlando TRACON
08:54PM 29.0278 -82.0961 148° Southeast  Level FlightAware Approximate
08:54PM 29.0000 -82.0167 156° South 115 132 4,500  Level Orlando TRACON
08:55PM 28.9667 -82.0000 156° South 121 139 5,000 300 Climbing Orlando TRACON
08:56PM 28.9333 -81.9667 139° Southeast 139 160 5,100  Climbing Orlando TRACON
08:57PM 28.9000 -81.9500 156° South 154 177 5,100  Level Orlando TRACON
08:58PM 28.8500 -81.9333 164° South 154 177 5,100  Level Orlando TRACON
08:59PM 28.8167 -81.9167 156° South 153 176 5,100  Level Orlando TRACON
09:00PM 28.7833 -81.8833 139° Southeast 154 177 5,100 -60 Level Orlando TRACON
09:01PM 28.7500 -81.8667 156° South 154 177 5,000  Descending Orlando TRACON
09:02PM 28.7000 -81.8333 150° Southeast 153 176 5,100 -60 Climbing Orlando TRACON
09:03PM 28.6667 -81.8167 156° South 152 175 4,900 -360 Descending Orlando TRACON
09:03PM 28.6333 -81.8000 156° South 162 186 4,500 -540 Descending Orlando TRACON
09:04PM 28.6000 -81.7667 139° Southeast 168 193 3,900 -540 Descending Orlando TRACON
09:05PM 28.5500 -81.7500 164° South 164 189 3,500 -480 Descending Orlando TRACON
09:07PM 28.5167 -81.7167 139° Southeast 155 178 3,000 -240 Descending Orlando TRACON
09:08PM 28.4667 -81.7000 164° South 143 165 3,100  Climbing Orlando TRACON
09:08PM 28.4333 -81.6833 156° South 141 162 3,000 -60 Descending Orlando TRACON
09:10PM 28.4333 -81.6500 90° East 142 163 3,000  Level Orlando TRACON
09:11PM 28.4333 -81.6000 90° East 142 163 3,000  Level Orlando TRACON
09:12PM 28.4500 -81.5667 60° Northeast 143 165 3,000  Level Orlando TRACON
09:13PM 28.4667 -81.5167 69° East 144 166 3,100  Climbing Orlando TRACON
09:14PM 28.4667 -81.4833 90° East 142 163 3,100 -60 Level Orlando TRACON
09:15PM 28.4667 -81.4333 90° East 142 163 3,000  Descending Orlando TRACON
09:16PM 28.4833 -81.3833 69° East 141 162 3,100  Climbing Orlando TRACON
09:17PM 28.4833 -81.3333 90° East 140 161 3,100  Level Orlando TRACON
09:18PM 28.4833 -81.3000 90° East 138 159 3,100 -60 Level Orlando TRACON
09:19PM 28.4667 -81.2500 111° Southeast 137 158 3,000  Descending Orlando TRACON
09:20PM 28.4667 -81.2000 90° East 136 157 3,100  Climbing Orlando TRACON
09:21PM 28.4500 -81.1667 120° Southeast 136 157 3,000 -60 Descending Orlando TRACON
09:22PM 28.4500 -81.1167 90° East 134 154 3,000  Level Orlando TRACON
09:23PM 28.4333 -81.0833 120° Southeast 136 157 3,100  Climbing Orlando TRACON
09:24PM 28.4333 -81.0333 90° East 133 153 3,000 -60 Descending Orlando TRACON
09:25PM 28.4167 -81.0000 120° Southeast 133 153 3,000  Level Orlando TRACON
09:26PM 28.4000 -80.9667 120° Southeast 135 155 3,000  Level Orlando TRACON
09:27PM 28.3667 -80.9500 156° South 133 153 3,000  Level Orlando TRACON
09:28PM 28.3333 -80.9333 156° South 132 152 3,100  Climbing Orlando TRACON
09:29PM 28.3000 -80.9000 139° Southeast 135 155 3,000 -60 Descending Orlando TRACON
09:30PM 28.2833 -80.8833 139° Southeast 132 152 3,000  Level Orlando TRACON
09:31PM 28.2500 -80.8667 156° South 133 153 3,000  Level Orlando TRACON
09:32PM 28.2000 -80.8500 164° South 139 160 3,000  Level Orlando TRACON
09:33PM 28.1667 -80.8500 180° South 136 157 3,000 -240 Level Orlando TRACON
09:34PM 28.1333 -80.8500 180° South 146 168 2,600 -480 Descending Orlando TRACON
09:35PM 28.1167 -80.8000 111° Southeast 149 171 2,100 -300 Descending Orlando TRACON
09:36PM 28.1000 -80.7667 120° Southeast 136 157 2,000 -120 Descending Orlando TRACON
09:37PM 28.1000 -80.7167 90° East 127 146 1,900 -600 Descending Orlando TRACON
09:38PM 28.1000 -80.7000 90° East 89 102 800 -1,260 Descending Orlando TRACON
09:40PM 28.1028 -80.6453 132° Southeast  Level Estimated
09:47PM 28.1028 -80.6453 132° Southeast  Level Estimated
09:48PM 28.1028 -80.6453 105° East  Level Estimated
09:49PM 28.1028 -80.6453 105° East  Level Estimated
09:50PM 28.1028 -80.6453 132° Southeast  Level Estimated